createdAt,value
2019-02-27T00:00:28.458Z,60.40
2019-02-27T00:02:56.953Z,61.63
2019-02-27T00:05:25.031Z,57.87
2019-02-27T00:07:54.716Z,58.23
2019-02-27T00:10:22.803Z,60.43
2019-02-27T00:12:51.988Z,59.37
2019-02-27T00:15:21.680Z,58.73
2019-02-27T00:17:51.370Z,57.93
2019-02-27T00:20:19.372Z,58.97
2019-02-27T00:22:47.895Z,61.57
2019-02-27T00:25:17.105Z,60.80
2019-02-27T00:27:48.840Z,59.37
2019-02-27T00:30:15.168Z,57.97
2019-02-27T00:32:43.278Z,59.10
2019-02-27T00:35:11.298Z,60.73
2019-02-27T00:37:39.282Z,56.10
2019-02-27T00:40:07.634Z,57.43
2019-02-27T00:42:35.714Z,56.87
2019-02-27T00:45:06.831Z,56.03
2019-02-27T00:47:33.396Z,56.17
2019-02-27T00:50:05.800Z,59.47
2019-02-27T00:52:31.099Z,58.47
2019-02-27T00:54:59.220Z,57.60
2019-02-27T00:57:27.268Z,57.27
2019-02-27T00:59:55.691Z,57.90
2019-02-27T01:02:23.689Z,58.70
2019-02-27T01:04:51.689Z,57.37
2019-02-27T01:07:20.695Z,57.60
2019-02-27T01:09:51.027Z,58.37
2019-02-27T01:12:19.022Z,58.17
2019-02-27T01:14:47.050Z,57.33
2019-02-27T01:17:15.103Z,55.27
2019-02-27T01:19:43.679Z,56.67
2019-02-27T01:22:11.631Z,54.10
2019-02-27T01:24:39.604Z,54.60
2019-02-27T01:27:07.603Z,53.00
2019-02-27T01:29:35.663Z,54.87
2019-02-27T01:32:03.773Z,51.90
2019-02-27T01:34:31.826Z,50.73
2019-02-27T01:36:59.875Z,53.67
2019-02-27T01:39:27.868Z,54.97
2019-02-27T01:41:57.888Z,54.13
2019-02-27T01:44:26.650Z,52.17
2019-02-27T01:46:55.698Z,52.53
2019-02-27T01:49:24.242Z,54.87
2019-02-27T01:51:52.326Z,53.40
2019-02-27T01:54:20.345Z,55.50
2019-02-27T01:56:48.383Z,53.97
2019-02-27T01:59:16.913Z,56.87
2019-02-27T02:01:45.710Z,56.97
2019-02-27T02:04:13.759Z,54.50
2019-02-27T02:06:41.750Z,55.50
2019-02-27T02:09:10.615Z,55.17
2019-02-27T02:11:38.611Z,54.40
2019-02-27T02:14:22.994Z,54.13
2019-02-27T02:17:00.198Z,55.33
2019-02-27T02:19:46.163Z,55.83
2019-02-27T02:22:24.267Z,54.90
2019-02-27T02:25:14.137Z,56.13
2019-02-27T02:28:06.411Z,55.07
2019-02-27T02:30:48.128Z,53.13
2019-02-27T02:33:28.925Z,53.20
2019-02-27T02:35:56.957Z,54.73
2019-02-27T02:38:42.269Z,54.30
2019-02-27T02:41:21.582Z,53.37
2019-02-27T02:44:08.747Z,52.93
2019-02-27T02:46:47.632Z,54.50
2019-02-27T02:49:44.114Z,52.57
2019-02-27T02:52:36.880Z,51.97
2019-02-27T02:55:28.364Z,50.83
2019-02-27T02:58:15.523Z,49.20
2019-02-27T03:00:49.104Z,49.50
2019-02-27T03:03:48.246Z,50.33
2019-02-27T03:06:35.109Z,47.07
2019-02-27T03:09:07.814Z,47.57
2019-02-27T03:12:01.079Z,47.30
2019-02-27T03:14:54.183Z,46.33
2019-02-27T03:17:54.847Z,45.07
2019-02-27T03:20:42.286Z,46.20
2019-02-27T03:23:35.345Z,45.97
2019-02-27T03:26:16.489Z,44.70
2019-02-27T03:28:55.558Z,42.50
2019-02-27T03:31:30.196Z,44.60
2019-02-27T03:34:29.697Z,42.63
2019-02-27T03:37:22.768Z,43.93
2019-02-27T03:40:15.182Z,43.27
2019-02-27T03:42:53.261Z,41.97
2019-02-27T03:45:40.453Z,43.93
2019-02-27T03:48:14.828Z,44.80
2019-02-27T03:50:49.445Z,41.70
2019-02-27T03:53:32.936Z,43.50
2019-02-27T03:56:20.100Z,41.30
2019-02-27T03:58:58.754Z,41.07
2019-02-27T04:01:45.472Z,42.13
2019-02-27T04:04:33.372Z,41.30
2019-02-27T04:07:10.193Z,40.00
2019-02-27T04:09:38.204Z,41.57
2019-02-27T04:12:06.260Z,42.97
2019-02-27T04:14:40.287Z,39.80
2019-02-27T04:17:06.965Z,39.90
2019-02-27T04:19:38.860Z,41.57
2019-02-27T04:22:04.066Z,40.43
2019-02-27T04:24:32.085Z,39.30
2019-02-27T04:27:00.088Z,40.63
2019-02-27T04:29:28.246Z,39.77
2019-02-27T04:31:56.209Z,37.70
2019-02-27T04:34:24.318Z,37.10
2019-02-27T04:36:52.331Z,38.20
2019-02-27T04:39:20.422Z,40.10
2019-02-27T04:41:49.565Z,39.03
2019-02-27T04:44:18.376Z,38.67
2019-02-27T04:46:46.430Z,38.73
2019-02-27T04:49:14.518Z,37.40
2019-02-27T04:51:42.535Z,38.80
2019-02-27T04:54:12.326Z,37.53
2019-02-27T04:56:40.337Z,39.13
2019-02-27T04:59:08.314Z,39.00
2019-02-27T05:01:37.340Z,39.97
2019-02-27T05:04:05.656Z,42.17
2019-02-27T05:06:33.773Z,43.27
2019-02-27T05:09:02.814Z,41.03
2019-02-27T05:11:30.884Z,42.47
2019-02-27T05:13:58.938Z,44.47
2019-02-27T05:16:26.978Z,43.23
2019-02-27T05:18:55.092Z,42.50
2019-02-27T05:21:23.113Z,42.60
2019-02-27T05:23:51.131Z,59.37
2019-02-27T05:26:19.157Z,46.90
2019-02-27T05:28:47.193Z,45.00
2019-02-27T05:31:18.343Z,43.17
2019-02-27T05:33:44.942Z,44.77
2019-02-27T05:36:12.894Z,42.77
2019-02-27T05:38:43.419Z,42.40
2019-02-27T05:41:10.673Z,44.80
2019-02-27T05:43:39.257Z,40.13
2019-02-27T05:46:07.246Z,39.90
2019-02-27T05:48:36.000Z,39.97
2019-02-27T05:51:04.991Z,47.98
2019-02-27T05:53:33.793Z,42.23
2019-02-27T05:56:02.849Z,42.43
2019-02-27T05:58:30.940Z,43.13
2019-02-27T06:00:59.036Z,40.57
2019-02-27T06:03:27.022Z,40.13
2019-02-27T06:05:55.646Z,49.13
2019-02-27T06:08:24.054Z,42.77
2019-02-27T06:10:55.133Z,42.00
2019-02-27T06:13:21.877Z,83.77
2019-02-27T06:15:49.950Z,44.40
2019-02-27T06:18:22.506Z,44.27
2019-02-27T06:20:47.811Z,41.37
2019-02-27T06:23:15.915Z,38.50
2019-02-27T06:25:43.968Z,40.13
2019-02-27T06:28:12.455Z,40.53
2019-02-27T06:30:40.491Z,41.47
2019-02-27T06:33:11.661Z,39.63
2019-02-27T06:35:38.227Z,40.43
2019-02-27T06:38:06.249Z,41.47
2019-02-27T06:40:34.691Z,39.83
2019-02-27T06:43:02.719Z,40.77
2019-02-27T06:45:31.213Z,40.07
2019-02-27T06:47:59.469Z,40.90
2019-02-27T06:50:28.020Z,37.77
2019-02-27T06:52:55.995Z,37.27
2019-02-27T06:55:25.564Z,37.50
2019-02-27T06:57:53.851Z,37.30
2019-02-27T07:00:23.137Z,37.87
2019-02-27T07:02:55.191Z,37.77
2019-02-27T07:05:20.773Z,38.10
2019-02-27T07:07:48.811Z,36.90
2019-02-27T07:10:19.621Z,38.87
2019-02-27T07:12:46.482Z,37.30
2019-02-27T07:15:15.831Z,34.80
2019-02-27T07:17:43.939Z,37.00
2019-02-27T07:20:12.229Z,36.87
2019-02-27T07:22:40.313Z,35.37
2019-02-27T07:25:10.847Z,35.03
2019-02-27T07:27:38.933Z,35.23
2019-02-27T07:30:08.213Z,36.23
2019-02-27T07:32:36.290Z,31.80
2019-02-27T07:35:04.323Z,30.80
2019-02-27T07:37:32.354Z,31.73
2019-02-27T07:40:01.736Z,31.60
2019-02-27T07:42:31.934Z,33.43
2019-02-27T07:44:59.483Z,31.93
2019-02-27T07:47:27.507Z,35.47
2019-02-27T07:49:55.642Z,32.40
2019-02-27T07:52:23.650Z,31.97
2019-02-27T07:54:51.728Z,32.70
2019-02-27T07:57:19.693Z,30.10
2019-02-27T07:59:47.750Z,33.23
2019-02-27T08:02:15.771Z,31.90
2019-02-27T08:04:43.803Z,32.67
2019-02-27T08:07:12.382Z,32.53
2019-02-27T08:09:41.058Z,33.00
2019-02-27T08:12:09.115Z,32.73
2019-02-27T08:14:37.811Z,34.27
2019-02-27T08:17:17.032Z,36.70
2019-02-27T08:19:35.782Z,35.53
2019-02-27T08:22:03.818Z,32.43
2019-02-27T08:24:33.689Z,32.30
2019-02-27T08:27:01.926Z,30.70
2019-02-27T08:29:29.969Z,30.07
2019-02-27T08:32:00.711Z,32.00
2019-02-27T08:34:27.632Z,30.00
2019-02-27T08:36:55.714Z,30.23
2019-02-27T08:39:23.750Z,31.03
2019-02-27T08:41:51.764Z,30.10
2019-02-27T08:44:19.867Z,28.43
2019-02-27T08:46:47.943Z,30.40
2019-02-27T08:49:15.998Z,30.63
2019-02-27T08:51:44.418Z,32.13
2019-02-27T08:54:12.423Z,32.40
2019-02-27T08:56:40.444Z,34.87
2019-02-27T08:59:08.559Z,32.30
2019-02-27T09:01:37.880Z,31.27
2019-02-27T09:04:11.173Z,32.30
2019-02-27T09:06:36.313Z,30.63
2019-02-27T09:09:05.080Z,32.53
2019-02-27T09:11:33.099Z,30.30
2019-02-27T09:14:01.186Z,31.43
2019-02-27T09:16:29.347Z,30.53
2019-02-27T09:18:57.611Z,31.17
2019-02-27T09:21:27.876Z,29.93
2019-02-27T09:23:55.405Z,29.73
2019-02-27T09:26:24.308Z,30.17
2019-02-27T09:28:52.476Z,31.23
2019-02-27T09:31:20.476Z,30.63
2019-02-27T09:33:52.999Z,29.33
2019-02-27T09:36:18.370Z,30.13
2019-02-27T09:38:46.378Z,28.43
2019-02-27T09:41:14.368Z,29.13
2019-02-27T09:43:42.469Z,28.63
2019-02-27T09:46:10.987Z,28.63
2019-02-27T09:48:39.417Z,30.17
2019-02-27T09:51:07.491Z,29.20
2019-02-27T09:53:36.800Z,29.70
2019-02-27T09:56:05.261Z,28.73
2019-02-27T09:58:33.241Z,28.97
2019-02-27T10:01:08.447Z,29.20
2019-02-27T10:03:37.601Z,29.83
2019-02-27T10:06:05.659Z,29.77
2019-02-27T10:08:34.384Z,29.53
2019-02-27T10:11:02.607Z,29.03
2019-02-27T10:13:30.716Z,29.43
2019-02-27T10:16:01.310Z,29.87
2019-02-27T10:18:28.543Z,29.23
2019-02-27T10:20:56.586Z,28.47
2019-02-27T10:23:24.697Z,28.07
2019-02-27T10:25:53.244Z,29.93
2019-02-27T10:28:21.461Z,28.97
2019-02-27T10:30:50.129Z,28.93
2019-02-27T10:33:18.920Z,27.57
2019-02-27T10:35:47.956Z,28.90
2019-02-27T10:38:16.121Z,28.67
2019-02-27T10:40:46.024Z,28.77
2019-02-27T10:43:14.715Z,29.53
2019-02-27T10:45:42.774Z,28.83
2019-02-27T10:48:12.633Z,27.30
2019-02-27T10:50:41.355Z,28.27
2019-02-27T10:53:09.433Z,27.93
2019-02-27T10:55:37.521Z,28.33
2019-02-27T10:58:07.548Z,27.93
2019-02-27T11:00:35.259Z,26.93
2019-02-27T11:03:03.254Z,25.47
2019-02-27T11:05:31.759Z,25.80
2019-02-27T11:07:59.892Z,24.07
2019-02-27T11:10:28.108Z,25.37
2019-02-27T11:12:57.178Z,24.73
2019-02-27T11:15:25.252Z,22.97
2019-02-27T11:17:53.501Z,24.10
2019-02-27T11:20:22.122Z,23.80
2019-02-27T11:22:51.484Z,24.83
2019-02-27T11:25:22.645Z,24.60
2019-02-27T11:27:50.340Z,25.57
2019-02-27T11:30:22.694Z,23.50
2019-02-27T11:32:56.909Z,23.07
2019-02-27T11:35:24.764Z,23.60
2019-02-27T11:37:51.699Z,21.53
2019-02-27T11:40:21.269Z,23.50
2019-02-27T11:42:49.269Z,22.53
2019-02-27T11:45:17.321Z,20.77
2019-02-27T11:47:47.958Z,21.10
2019-02-27T11:50:18.750Z,17.30
2019-02-27T11:52:49.356Z,19.37
2019-02-27T11:55:17.779Z,17.27
2019-02-27T11:57:45.861Z,17.90
2019-02-27T12:00:17.925Z,18.47
2019-02-27T12:02:47.826Z,17.97
2019-02-27T12:05:16.259Z,17.00
2019-02-27T12:07:44.286Z,18.33
2019-02-27T12:10:14.102Z,16.37
2019-02-27T12:12:42.154Z,17.67
2019-02-27T12:15:10.522Z,19.87
2019-02-27T12:17:38.672Z,18.97
2019-02-27T12:20:07.211Z,21.23
2019-02-27T12:22:36.695Z,20.17
2019-02-27T12:25:04.784Z,18.50
2019-02-27T12:27:48.565Z,20.93
2019-02-27T12:30:03.926Z,17.73
2019-02-27T12:32:32.223Z,19.00
2019-02-27T12:35:00.274Z,19.47
2019-02-27T12:37:31.471Z,18.67
2019-02-27T12:39:58.858Z,17.73
2019-02-27T12:42:35.782Z,18.03
2019-02-27T12:44:56.980Z,17.87
2019-02-27T12:47:25.082Z,18.53
2019-02-27T12:49:54.166Z,18.43
2019-02-27T12:52:22.853Z,18.80
2019-02-27T12:54:50.919Z,17.40
2019-02-27T12:57:19.485Z,16.73
2019-02-27T12:59:47.616Z,16.90
2019-02-27T13:02:15.634Z,16.80
2019-02-27T13:04:43.756Z,16.37
2019-02-27T13:07:11.847Z,16.37
2019-02-27T13:09:40.013Z,16.63
2019-02-27T13:12:08.054Z,16.10
2019-02-27T13:14:36.270Z,15.53
2019-02-27T13:17:04.405Z,14.67
2019-02-27T13:19:32.812Z,14.63
2019-02-27T13:22:01.168Z,14.33
2019-02-27T13:24:29.285Z,14.70
2019-02-27T13:26:57.812Z,14.87
2019-02-27T13:29:26.161Z,15.23
2019-02-27T13:31:54.316Z,14.40
2019-02-27T13:34:22.480Z,14.67
2019-02-27T13:36:50.748Z,15.67
2019-02-27T13:39:19.478Z,14.30
2019-02-27T13:41:50.693Z,15.30
2019-02-27T13:44:19.689Z,13.73
2019-02-27T13:46:47.916Z,16.00
2019-02-27T13:49:16.020Z,13.07
2019-02-27T13:51:44.891Z,13.97
2019-02-27T13:54:13.906Z,13.17
2019-02-27T13:56:42.252Z,12.27
2019-02-27T13:59:11.726Z,12.40
2019-02-27T14:01:39.977Z,12.17
2019-02-27T14:04:08.239Z,13.13
2019-02-27T14:06:36.489Z,12.33
2019-02-27T14:09:07.087Z,11.90
2019-02-27T14:11:35.646Z,10.57
2019-02-27T14:14:03.759Z,11.53
2019-02-27T14:16:34.596Z,12.00
2019-02-27T14:19:01.719Z,10.87
2019-02-27T14:21:29.871Z,11.27
2019-02-27T14:23:59.903Z,13.10
2019-02-27T14:26:29.642Z,11.23
2019-02-27T14:28:57.884Z,11.27
2019-02-27T14:31:25.916Z,11.83
2019-02-27T14:33:55.042Z,11.27
2019-02-27T14:36:24.659Z,9.67
2019-02-27T14:38:53.360Z,12.57
2019-02-27T14:41:22.608Z,11.07
2019-02-27T14:43:50.993Z,12.07
2019-02-27T14:46:19.105Z,9.90
2019-02-27T14:48:47.146Z,10.67
2019-02-27T14:51:15.562Z,9.47
2019-02-27T14:53:43.715Z,10.70
2019-02-27T14:56:11.751Z,9.80
2019-02-27T14:58:39.845Z,9.23
2019-02-27T15:01:08.000Z,10.93
2019-02-27T15:03:36.175Z,10.77
2019-02-27T15:06:04.740Z,11.20
2019-02-27T15:08:33.376Z,11.57
2019-02-27T15:11:02.692Z,11.33
2019-02-27T15:13:30.890Z,10.47
2019-02-27T15:15:59.027Z,11.10
2019-02-27T15:18:28.274Z,11.00
2019-02-27T15:20:56.324Z,10.83
2019-02-27T15:23:25.044Z,10.00
2019-02-27T15:25:54.612Z,11.37
2019-02-27T15:28:22.721Z,10.57
2019-02-27T15:30:50.762Z,9.43
2019-02-27T15:33:18.861Z,9.23
2019-02-27T15:35:46.881Z,10.10
2019-02-27T15:38:14.969Z,10.93
2019-02-27T15:40:43.193Z,10.20
2019-02-27T15:43:11.749Z,10.93
2019-02-27T15:45:47.445Z,10.43
2019-02-27T15:48:10.021Z,10.83
2019-02-27T15:50:38.129Z,10.00
2019-02-27T15:53:06.300Z,10.33
2019-02-27T15:55:35.367Z,10.77
2019-02-27T15:58:03.721Z,10.17
2019-02-27T16:00:32.179Z,10.40
2019-02-27T16:03:00.347Z,10.83
2019-02-27T16:05:31.241Z,10.63
2019-02-27T16:07:58.320Z,10.10
2019-02-27T16:10:26.424Z,10.53
2019-02-27T16:13:00.053Z,11.33
2019-02-27T16:15:30.706Z,10.10
2019-02-27T16:18:04.327Z,10.53
2019-02-27T16:20:33.394Z,10.87
2019-02-27T16:23:04.258Z,11.00
2019-02-27T16:25:31.965Z,10.47
2019-02-27T16:28:00.399Z,10.30
2019-02-27T16:30:32.407Z,10.33
2019-02-27T16:33:02.387Z,10.20
2019-02-27T16:35:33.557Z,11.83
2019-02-27T16:38:02.219Z,11.97
2019-02-27T16:40:30.461Z,10.47
2019-02-27T16:42:58.999Z,11.70
2019-02-27T16:45:31.937Z,9.87
2019-02-27T16:47:58.419Z,9.13
2019-02-27T16:50:28.134Z,9.87
2019-02-27T16:52:56.500Z,9.37
2019-02-27T16:55:24.590Z,9.93
2019-02-27T16:57:56.568Z,9.90
2019-02-27T17:00:23.712Z,10.13
2019-02-27T17:02:51.849Z,10.23
2019-02-27T17:05:23.528Z,10.93
2019-02-27T17:07:51.514Z,10.00
2019-02-27T17:10:20.840Z,10.23
2019-02-27T17:12:48.948Z,11.90
2019-02-27T17:15:16.949Z,11.60
2019-02-27T17:17:45.468Z,10.00
2019-02-27T17:20:14.887Z,11.33
2019-02-27T17:22:42.909Z,10.07
2019-02-27T17:25:11.228Z,10.07
2019-02-27T17:27:39.446Z,10.33
2019-02-27T17:30:12.231Z,9.67
2019-02-27T17:32:40.196Z,10.17
2019-02-27T17:35:08.327Z,10.30
2019-02-27T17:37:37.364Z,8.73
2019-02-27T17:40:06.958Z,8.80
2019-02-27T17:42:35.697Z,8.40
2019-02-27T17:45:03.814Z,10.33
2019-02-27T17:47:31.806Z,8.40
2019-02-27T17:50:00.208Z,9.57
2019-02-27T17:52:28.337Z,9.37
2019-02-27T17:54:56.399Z,8.77
2019-02-27T17:57:25.163Z,9.13
2019-02-27T17:59:53.173Z,9.60
2019-02-27T18:02:21.173Z,10.67
2019-02-27T18:04:53.036Z,9.97
2019-02-27T18:07:18.951Z,10.47
2019-02-27T18:09:46.973Z,11.03
2019-02-27T18:12:15.029Z,10.50
2019-02-27T18:14:46.822Z,10.63
2019-02-27T18:17:13.958Z,11.40
2019-02-27T18:19:42.066Z,11.27
2019-02-27T18:22:13.989Z,9.93
2019-02-27T18:24:39.776Z,9.43
2019-02-27T18:27:09.088Z,11.20
2019-02-27T18:29:41.150Z,11.57
2019-02-27T18:32:06.987Z,9.90
2019-02-27T18:34:36.729Z,9.90
2019-02-27T18:37:06.765Z,9.37
2019-02-27T18:39:36.525Z,10.70
2019-02-27T18:42:04.480Z,9.23
2019-02-27T18:44:32.499Z,9.80
2019-02-27T18:47:02.388Z,10.83
2019-02-27T18:49:30.436Z,10.50
2019-02-27T18:51:58.466Z,9.80
2019-02-27T18:54:26.533Z,10.13
2019-02-27T18:56:54.543Z,9.37
2019-02-27T18:59:22.536Z,9.47
2019-02-27T19:01:50.743Z,9.60
2019-02-27T19:04:18.774Z,8.63
2019-02-27T19:06:47.009Z,9.60
2019-02-27T19:09:15.039Z,10.17
2019-02-27T19:11:43.254Z,10.47
2019-02-27T19:14:11.221Z,9.10
2019-02-27T19:16:39.298Z,8.97
2019-02-27T19:19:08.344Z,10.23
2019-02-27T19:24:33.875Z,8.93
2019-02-27T19:27:01.943Z,10.33
2019-02-27T19:29:31.937Z,9.13
2019-02-27T19:31:59.644Z,9.97
2019-02-27T19:34:27.645Z,11.77
2019-02-27T19:36:55.767Z,10.63
2019-02-27T19:39:23.923Z,12.53
2019-02-27T19:41:51.958Z,12.40
2019-02-27T19:44:19.927Z,12.70
2019-02-27T19:46:47.992Z,11.40
2019-02-27T19:49:15.988Z,11.73
2019-02-27T19:51:45.051Z,12.23
2019-02-27T19:54:14.938Z,12.77
2019-02-27T19:56:42.923Z,11.70
2019-02-27T19:59:11.002Z,10.87
2019-02-27T20:01:40.446Z,12.23
2019-02-27T20:04:09.665Z,12.83
2019-02-27T20:06:40.630Z,16.03
2019-02-27T20:09:08.643Z,12.10
2019-02-27T20:11:40.011Z,11.63
2019-02-27T20:14:08.726Z,12.80
2019-02-27T20:16:36.824Z,14.27
2019-02-27T20:19:04.910Z,12.60
2019-02-27T20:21:39.423Z,10.70
2019-02-27T20:24:14.373Z,11.07
2019-02-27T20:26:44.220Z,12.03
2019-02-27T20:29:07.075Z,9.80
2019-02-27T20:31:35.248Z,13.53
2019-02-27T20:34:03.246Z,13.90
2019-02-27T20:36:33.176Z,11.37
2019-02-27T20:39:03.274Z,8.47
2019-02-27T20:41:31.458Z,9.63
2019-02-27T20:44:00.285Z,9.40
2019-02-27T20:46:29.462Z,8.47
2019-02-27T20:48:57.693Z,9.80
2019-02-27T20:51:26.041Z,10.17
2019-02-27T20:53:55.510Z,8.00
2019-02-27T20:56:28.183Z,8.27
2019-02-27T20:58:56.673Z,8.27
2019-02-27T21:01:26.121Z,7.83
2019-02-27T21:04:01.383Z,6.73
2019-02-27T21:06:26.955Z,6.83
2019-02-27T21:08:55.462Z,7.43
2019-02-27T21:11:23.607Z,7.77
2019-02-27T21:13:51.971Z,6.73
2019-02-27T21:16:20.105Z,7.83
2019-02-27T21:18:48.274Z,7.43
2019-02-27T21:21:17.028Z,9.10
2019-02-27T21:23:46.132Z,8.85
2019-02-27T21:26:14.209Z,8.10
2019-02-27T21:28:42.290Z,8.47
2019-02-27T21:31:10.302Z,8.77
2019-02-27T21:33:38.304Z,7.90
2019-02-27T21:36:06.436Z,7.00
2019-02-27T21:38:34.557Z,7.10
2019-02-27T21:41:02.986Z,7.77
2019-02-27T21:43:31.012Z,7.07
2019-02-27T21:46:01.305Z,6.97
2019-02-27T21:48:29.360Z,8.23
2019-02-27T21:50:57.399Z,7.77
2019-02-27T21:53:26.111Z,7.33
2019-02-27T21:55:55.261Z,8.90
2019-02-27T21:58:23.380Z,7.83
2019-02-27T22:00:51.403Z,7.77
2019-02-27T22:03:19.631Z,7.73
2019-02-27T22:05:52.570Z,7.57
2019-02-27T22:08:17.769Z,8.13
2019-02-27T22:10:45.947Z,7.73
2019-02-27T22:13:14.087Z,8.47
2019-02-27T22:15:42.197Z,6.97
2019-02-27T22:18:11.792Z,7.70
2019-02-27T22:20:40.294Z,7.40
2019-02-27T22:23:08.407Z,8.17
2019-02-27T22:25:37.056Z,7.90
2019-02-27T22:28:05.152Z,7.17
2019-02-27T22:30:33.258Z,8.30
2019-02-27T22:33:01.797Z,8.40
2019-02-27T22:35:30.508Z,9.00
2019-02-27T22:37:58.623Z,7.90
2019-02-27T22:40:26.972Z,8.63
2019-02-27T22:42:54.939Z,9.30
2019-02-27T22:45:22.968Z,8.27
2019-02-27T22:47:54.022Z,8.27
2019-02-27T22:50:21.672Z,7.97
2019-02-27T22:52:54.188Z,9.10
2019-02-27T22:55:19.311Z,9.00
2019-02-27T22:57:47.240Z,9.77
2019-02-27T23:00:25.428Z,11.13
2019-02-27T23:02:53.534Z,9.17
2019-02-27T23:05:21.539Z,9.10
2019-02-27T23:07:51.679Z,9.13
2019-02-27T23:10:19.302Z,9.87
2019-02-27T23:12:47.279Z,9.03
2019-02-27T23:15:15.962Z,9.27
2019-02-27T23:17:44.239Z,9.60
2019-02-27T23:20:12.243Z,8.87
2019-02-27T23:22:41.930Z,9.13
2019-02-27T23:25:10.030Z,9.40
2019-02-27T23:27:38.106Z,9.73
2019-02-27T23:30:14.901Z,9.60
2019-02-27T23:32:38.285Z,9.20
2019-02-27T23:35:06.270Z,10.30
2019-02-27T23:37:34.311Z,9.80
2019-02-27T23:40:02.381Z,10.03
2019-02-27T23:42:30.394Z,9.63
2019-02-27T23:44:58.736Z,10.23
2019-02-27T23:47:28.718Z,9.07
2019-02-27T23:49:56.590Z,9.60
2019-02-27T23:52:24.927Z,9.70
2019-02-27T23:54:53.005Z,9.80
2019-02-27T23:57:23.587Z,9.50
2019-02-27T23:59:50.752Z,9.47
